createdAt,value
2022-12-26T00:01:09.608Z,63.28
2022-12-26T00:03:56.595Z,63.43
2022-12-26T00:06:42.700Z,63.18
2022-12-26T00:09:28.341Z,63.19
2022-12-26T00:12:14.209Z,63.07
2022-12-26T00:15:00.235Z,62.82
2022-12-26T00:17:45.946Z,62.98
2022-12-26T00:20:31.485Z,62.76
2022-12-26T00:23:17.079Z,63.04
2022-12-26T00:26:08.312Z,63.17
2022-12-26T00:28:55.289Z,63.07
2022-12-26T00:31:41.164Z,63.20
2022-12-26T00:34:26.826Z,63.37
2022-12-26T00:37:12.467Z,63.62
2022-12-26T00:39:58.126Z,63.64
2022-12-26T00:42:44.799Z,63.58
2022-12-26T00:45:30.620Z,63.39
2022-12-26T00:48:16.210Z,63.02
2022-12-26T00:51:02.164Z,63.08
2022-12-26T00:53:48.161Z,63.08
2022-12-26T00:56:35.047Z,63.23
2022-12-26T00:59:21.930Z,63.14
2022-12-26T01:02:27.896Z,62.98
2022-12-26T01:05:13.785Z,62.98
2022-12-26T01:08:21.146Z,63.21
2022-12-26T01:11:08.255Z,63.21
2022-12-26T01:13:54.128Z,63.12
2022-12-26T01:16:40.588Z,63.20
2022-12-26T01:19:26.522Z,63.38
2022-12-26T01:22:12.308Z,63.19
2022-12-26T01:24:58.203Z,63.20
2022-12-26T01:27:44.265Z,63.43
2022-12-26T01:30:29.982Z,63.34
2022-12-26T01:33:16.161Z,63.00
2022-12-26T01:36:01.927Z,63.30
2022-12-26T01:38:47.501Z,63.41
2022-12-26T01:41:33.374Z,63.22
2022-12-26T01:44:56.609Z,63.13
2022-12-26T01:47:57.181Z,63.22
2022-12-26T01:50:42.839Z,63.47
2022-12-26T01:53:37.591Z,63.48
2022-12-26T01:56:36.494Z,63.58
2022-12-26T01:59:25.834Z,63.37
2022-12-26T02:02:11.823Z,63.57
2022-12-26T02:05:16.776Z,63.50
2022-12-26T02:08:17.636Z,63.77
2022-12-26T02:11:31.619Z,63.91
2022-12-26T02:14:17.600Z,63.65
2022-12-26T02:17:04.089Z,63.89
2022-12-26T02:20:04.107Z,63.78
2022-12-26T02:23:20.104Z,63.84
2022-12-26T02:26:24.005Z,63.71
2022-12-26T02:29:21.984Z,63.73
2022-12-26T02:32:26.326Z,63.14
2022-12-26T02:35:37.190Z,63.32
2022-12-26T02:38:48.492Z,63.84
2022-12-26T02:41:50.402Z,63.43
2022-12-26T02:44:54.823Z,63.69
2022-12-26T02:48:10.195Z,63.78
2022-12-26T02:51:14.230Z,63.28
2022-12-26T02:54:38.713Z,63.45
2022-12-26T02:57:50.133Z,63.94
2022-12-26T03:00:57.755Z,63.22
2022-12-26T03:04:08.668Z,63.97
2022-12-26T03:07:16.172Z,63.60
2022-12-26T03:10:25.934Z,64.03
2022-12-26T03:13:26.334Z,64.35
2022-12-26T03:16:31.114Z,64.31
2022-12-26T03:19:17.367Z,63.92
2022-12-26T03:22:27.725Z,64.09
2022-12-26T03:25:50.854Z,63.71
2022-12-26T03:28:36.776Z,63.77
2022-12-26T03:31:22.811Z,63.83
2022-12-26T03:34:28.154Z,63.59
2022-12-26T03:37:56.237Z,63.51
2022-12-26T03:41:10.138Z,63.55
2022-12-26T03:44:46.245Z,63.79
2022-12-26T03:48:37.835Z,63.98
2022-12-26T03:52:31.421Z,63.63
2022-12-26T03:56:15.828Z,63.81
2022-12-26T03:59:26.685Z,63.88
2022-12-26T04:02:39.702Z,64.03
2022-12-26T04:05:49.340Z,63.49
2022-12-26T04:09:13.315Z,63.94
2022-12-26T04:12:19.382Z,63.58
2022-12-26T04:16:06.103Z,64.04
2022-12-26T04:19:27.228Z,63.79
2022-12-26T04:22:39.672Z,63.55
2022-12-26T04:25:58.883Z,64.19
2022-12-26T04:29:03.397Z,64.02
2022-12-26T04:32:17.242Z,64.22
2022-12-26T04:35:47.024Z,63.63
2022-12-26T04:38:57.830Z,63.70
2022-12-26T04:42:03.841Z,64.11
2022-12-26T04:44:50.359Z,64.28
2022-12-26T04:47:36.447Z,64.31
2022-12-26T04:50:22.158Z,64.01
2022-12-26T04:53:07.733Z,64.05
2022-12-26T04:55:53.441Z,63.82
2022-12-26T04:58:39.286Z,64.28
2022-12-26T05:01:44.232Z,63.90
2022-12-26T05:04:48.996Z,63.76
2022-12-26T05:07:54.988Z,64.05
2022-12-26T05:10:40.978Z,64.27
2022-12-26T05:13:26.986Z,64.67
2022-12-26T05:16:31.143Z,64.75
2022-12-26T05:19:37.522Z,64.52
2022-12-26T05:22:42.515Z,64.63
2022-12-26T05:25:52.575Z,64.66
2022-12-26T05:28:44.638Z,63.84
2022-12-26T05:31:35.578Z,64.60
2022-12-26T05:34:22.421Z,64.38
2022-12-26T05:37:08.098Z,63.97
2022-12-26T05:39:53.853Z,63.88
2022-12-26T05:42:39.628Z,64.46
2022-12-26T05:45:25.237Z,63.94
2022-12-26T05:48:10.868Z,64.16
2022-12-26T05:51:03.377Z,64.55
2022-12-26T05:53:49.430Z,64.58
2022-12-26T05:56:35.319Z,64.46
2022-12-26T05:59:20.974Z,63.93
2022-12-26T06:02:07.002Z,64.39
2022-12-26T06:04:52.942Z,64.64
2022-12-26T06:07:38.863Z,64.19
2022-12-26T06:10:26.908Z,64.45
2022-12-26T06:13:12.564Z,64.61
2022-12-26T06:15:59.337Z,64.19
2022-12-26T06:18:45.661Z,64.49
2022-12-26T06:21:31.592Z,63.62
2022-12-26T06:24:17.382Z,64.00
2022-12-26T06:27:03.261Z,63.53
2022-12-26T06:29:49.179Z,63.75
2022-12-26T06:32:35.055Z,64.46
2022-12-26T06:35:23.660Z,64.23
2022-12-26T06:38:11.115Z,64.04
2022-12-26T06:41:02.887Z,64.17
2022-12-26T06:43:49.779Z,64.61
2022-12-26T06:46:35.398Z,65.02
2022-12-26T06:49:21.037Z,64.69
2022-12-26T06:52:07.490Z,64.61
2022-12-26T06:54:53.535Z,64.22
2022-12-26T06:57:39.199Z,64.39
2022-12-26T07:00:25.229Z,64.71
2022-12-26T07:03:11.544Z,64.87
2022-12-26T07:05:57.405Z,64.51
2022-12-26T07:08:43.014Z,64.56
2022-12-26T07:11:31.130Z,64.46
2022-12-26T07:14:17.277Z,64.18
2022-12-26T07:17:02.864Z,64.62
2022-12-26T07:19:48.569Z,64.66
2022-12-26T07:22:34.346Z,64.84
2022-12-26T07:25:20.119Z,64.67
2022-12-26T07:28:12.009Z,64.37
2022-12-26T07:30:59.986Z,64.65
2022-12-26T07:33:53.425Z,64.37
2022-12-26T07:36:40.508Z,64.44
2022-12-26T07:39:26.038Z,64.34
2022-12-26T07:42:11.810Z,64.43
2022-12-26T07:44:57.614Z,64.51
2022-12-26T07:47:43.108Z,64.17
2022-12-26T07:50:29.292Z,64.63
2022-12-26T07:53:15.438Z,64.52
2022-12-26T07:56:01.771Z,64.58
2022-12-26T07:58:51.549Z,64.41
2022-12-26T08:01:37.672Z,64.45
2022-12-26T08:04:23.735Z,64.35
2022-12-26T08:07:10.058Z,64.17
2022-12-26T08:09:55.676Z,64.14
2022-12-26T08:12:42.012Z,63.90
2022-12-26T08:15:27.781Z,63.75
2022-12-26T08:18:13.502Z,63.97
2022-12-26T08:20:59.890Z,64.14
2022-12-26T08:23:48.443Z,64.19
2022-12-26T08:26:34.411Z,63.79
2022-12-26T08:29:20.206Z,64.10
2022-12-26T08:32:06.169Z,63.96
2022-12-26T08:34:51.985Z,63.85
2022-12-26T08:37:38.004Z,63.89
2022-12-26T08:40:42.082Z,64.19
2022-12-26T08:43:48.914Z,64.03
2022-12-26T08:46:36.124Z,63.93
2022-12-26T08:49:21.765Z,64.15
2022-12-26T08:52:07.633Z,63.84
2022-12-26T08:54:53.676Z,63.88
2022-12-26T08:57:39.305Z,63.58
2022-12-26T09:00:26.477Z,63.56
2022-12-26T09:03:12.236Z,63.68
2022-12-26T09:06:05.718Z,63.71
2022-12-26T09:08:53.680Z,63.92
2022-12-26T09:11:41.071Z,63.79
2022-12-26T09:14:26.833Z,63.72
2022-12-26T09:17:12.727Z,63.76
2022-12-26T09:19:58.725Z,63.76
2022-12-26T09:22:55.570Z,63.73
2022-12-26T09:25:41.438Z,63.36
2022-12-26T09:28:27.515Z,63.39
2022-12-26T09:31:17.311Z,63.21
2022-12-26T09:34:05.220Z,63.34
2022-12-26T09:36:51.042Z,63.33
2022-12-26T09:39:36.919Z,63.50
2022-12-26T09:42:32.122Z,63.29
2022-12-26T09:45:19.965Z,63.20
2022-12-26T09:48:56.595Z,63.17
2022-12-26T09:51:46.001Z,63.05
2022-12-26T09:54:34.343Z,63.34
2022-12-26T09:57:34.945Z,63.22
2022-12-26T10:00:25.722Z,62.88
2022-12-26T10:03:12.835Z,63.16
2022-12-26T10:06:01.766Z,63.33
2022-12-26T10:09:08.794Z,62.82
2022-12-26T10:12:06.280Z,62.84
2022-12-26T10:15:07.497Z,62.45
2022-12-26T10:18:03.047Z,62.92
2022-12-26T10:21:11.508Z,62.50
2022-12-26T10:24:20.967Z,62.06
2022-12-26T10:27:14.482Z,62.48
2022-12-26T10:30:09.183Z,62.69
2022-12-26T10:32:59.597Z,62.89
2022-12-26T10:35:46.541Z,62.36
2022-12-26T10:38:46.195Z,62.25
2022-12-26T10:41:38.585Z,62.57
2022-12-26T10:44:27.763Z,62.34
2022-12-26T10:47:40.655Z,62.15
2022-12-26T10:50:29.424Z,62.15
2022-12-26T10:53:16.220Z,62.09
2022-12-26T10:56:02.656Z,62.28
2022-12-26T10:59:02.536Z,62.10
2022-12-26T11:01:49.753Z,62.51
2022-12-26T11:05:10.466Z,62.93
2022-12-26T11:07:50.534Z,62.85
2022-12-26T11:10:36.388Z,63.20
2022-12-26T11:13:23.323Z,62.88
2022-12-26T11:16:11.575Z,62.75
2022-12-26T11:18:57.849Z,63.23
2022-12-26T11:21:43.791Z,63.49
2022-12-26T11:24:29.549Z,63.09
2022-12-26T11:27:23.717Z,62.49
2022-12-26T11:30:23.208Z,62.64
2022-12-26T11:33:33.999Z,62.08
2022-12-26T11:36:22.985Z,62.13
2022-12-26T11:39:25.306Z,62.35
2022-12-26T11:42:12.515Z,62.09
2022-12-26T11:45:00.231Z,62.16
2022-12-26T11:47:46.318Z,62.08
2022-12-26T11:50:32.327Z,62.35
2022-12-26T11:53:20.689Z,62.64
2022-12-26T11:56:07.256Z,62.31
2022-12-26T11:59:08.107Z,62.68
2022-12-26T12:02:15.214Z,62.45
2022-12-26T12:05:13.144Z,62.25
2022-12-26T12:08:14.497Z,62.25
2022-12-26T12:11:34.375Z,62.64
2022-12-26T12:14:35.818Z,62.12
2022-12-26T12:17:35.132Z,62.20
2022-12-26T12:20:35.968Z,61.97
2022-12-26T12:23:44.151Z,62.21
2022-12-26T12:26:38.056Z,62.45
2022-12-26T12:29:42.619Z,62.63
2022-12-26T12:33:09.566Z,62.47
2022-12-26T12:36:11.804Z,61.68
2022-12-26T12:39:34.673Z,61.58
2022-12-26T12:42:28.098Z,61.24
2022-12-26T12:45:22.364Z,60.80
2022-12-26T12:48:33.042Z,60.74
2022-12-26T12:51:35.970Z,60.09
2022-12-26T12:55:12.538Z,60.07
2022-12-26T12:58:26.366Z,60.59
2022-12-26T13:01:34.505Z,60.12
2022-12-26T13:04:29.313Z,60.63
2022-12-26T13:07:39.429Z,60.67
2022-12-26T13:10:33.279Z,60.88
2022-12-26T13:13:27.457Z,60.94
2022-12-26T13:16:17.414Z,61.64
2022-12-26T13:19:06.922Z,61.58
2022-12-26T13:21:56.069Z,61.77
2022-12-26T13:24:45.343Z,62.31
2022-12-26T13:27:34.032Z,62.11
2022-12-26T13:30:19.805Z,61.97
2022-12-26T13:33:05.967Z,62.18
2022-12-26T13:36:01.028Z,61.76
2022-12-26T13:38:56.249Z,61.09
2022-12-26T13:42:26.916Z,60.99
2022-12-26T13:45:37.534Z,60.43
2022-12-26T13:48:26.363Z,60.15
2022-12-26T13:51:46.269Z,59.87
2022-12-26T13:54:32.668Z,59.73
2022-12-26T13:57:30.361Z,59.49
2022-12-26T14:00:40.108Z,59.14
2022-12-26T14:03:55.663Z,58.73
2022-12-26T14:07:05.484Z,58.04
2022-12-26T14:10:05.398Z,58.36
2022-12-26T14:13:27.833Z,58.46
2022-12-26T14:16:54.182Z,58.54
2022-12-26T14:19:53.705Z,59.02
2022-12-26T14:23:04.602Z,59.41
2022-12-26T14:26:03.642Z,59.56
2022-12-26T14:28:52.573Z,59.85
2022-12-26T14:32:04.039Z,59.81
2022-12-26T14:35:09.518Z,60.09
2022-12-26T14:38:11.306Z,60.03
2022-12-26T14:41:06.132Z,60.09
2022-12-26T14:43:56.338Z,60.05
2022-12-26T14:46:43.692Z,60.53
2022-12-26T14:49:35.922Z,60.95
2022-12-26T14:52:25.568Z,61.01
2022-12-26T14:56:01.592Z,61.23
2022-12-26T14:58:54.117Z,60.95
2022-12-26T15:01:40.342Z,60.96
2022-12-26T15:04:32.558Z,61.03
2022-12-26T15:07:42.716Z,61.24
2022-12-26T15:11:23.885Z,61.15
2022-12-26T15:14:28.479Z,61.69
2022-12-26T15:17:49.296Z,61.21
2022-12-26T15:21:09.169Z,61.51
2022-12-26T15:24:09.984Z,61.55
2022-12-26T15:27:38.562Z,61.87
2022-12-26T15:30:41.745Z,61.65
2022-12-26T15:33:43.454Z,62.16
2022-12-26T15:37:08.812Z,61.60
2022-12-26T15:40:08.157Z,61.70
2022-12-26T15:43:04.008Z,61.84
2022-12-26T15:45:58.593Z,61.91
2022-12-26T15:48:47.564Z,61.90
2022-12-26T15:51:55.652Z,61.87
2022-12-26T15:55:05.040Z,62.50
2022-12-26T15:58:02.012Z,62.13
2022-12-26T16:00:54.098Z,62.33
2022-12-26T16:03:54.026Z,62.42
2022-12-26T16:06:48.824Z,62.41
2022-12-26T16:09:43.870Z,62.41
2022-12-26T16:12:32.713Z,62.35
2022-12-26T16:15:19.116Z,62.64
2022-12-26T16:18:26.630Z,62.63
2022-12-26T16:21:33.244Z,62.47
2022-12-26T16:24:22.087Z,62.78
2022-12-26T16:27:09.611Z,62.36
2022-12-26T16:29:58.169Z,62.88
2022-12-26T16:32:45.008Z,63.22
2022-12-26T16:35:36.659Z,62.95
2022-12-26T16:38:26.772Z,62.49
2022-12-26T16:41:30.799Z,62.69
2022-12-26T16:44:41.439Z,62.60
2022-12-26T16:47:29.190Z,62.59
2022-12-26T16:50:17.899Z,62.68
2022-12-26T16:53:13.597Z,62.80
2022-12-26T16:56:23.591Z,63.10
2022-12-26T16:59:17.960Z,63.64
2022-12-26T17:02:04.803Z,62.78
2022-12-26T17:04:58.849Z,63.36
2022-12-26T17:07:46.887Z,63.52
2022-12-26T17:10:35.427Z,63.29
2022-12-26T17:13:25.205Z,63.49
2022-12-26T17:16:11.275Z,62.90
2022-12-26T17:19:19.910Z,63.77
2022-12-26T17:22:18.022Z,62.86
2022-12-26T17:25:32.043Z,63.51
2022-12-26T17:28:18.223Z,64.23
2022-12-26T17:31:24.931Z,63.78
2022-12-26T17:34:17.760Z,63.25
2022-12-26T17:37:20.538Z,63.45
2022-12-26T17:40:16.018Z,63.27
2022-12-26T17:43:34.440Z,63.62
2022-12-26T17:46:23.764Z,63.31
2022-12-26T17:49:09.609Z,63.48
2022-12-26T17:52:02.044Z,63.61
2022-12-26T17:54:51.352Z,63.40
2022-12-26T17:57:37.116Z,63.67
2022-12-26T18:00:26.019Z,63.84
2022-12-26T18:03:12.239Z,63.18
2022-12-26T18:05:58.342Z,63.59
2022-12-26T18:08:44.765Z,63.78
2022-12-26T18:11:30.759Z,63.56
2022-12-26T18:14:16.432Z,63.43
2022-12-26T18:17:03.070Z,63.56
2022-12-26T18:19:50.224Z,63.52
2022-12-26T18:22:36.068Z,63.74
2022-12-26T18:25:24.817Z,63.99
2022-12-26T18:28:15.265Z,63.56
2022-12-26T18:31:01.360Z,63.79
2022-12-26T18:33:47.257Z,63.66
2022-12-26T18:36:35.850Z,64.00
2022-12-26T18:39:21.805Z,63.68
2022-12-26T18:42:12.047Z,63.67
2022-12-26T18:44:57.770Z,63.79
2022-12-26T18:47:43.448Z,63.90
2022-12-26T18:50:30.209Z,63.81
2022-12-26T18:53:15.955Z,64.00
2022-12-26T18:56:01.988Z,63.86
2022-12-26T18:58:54.065Z,63.88
2022-12-26T19:01:43.843Z,64.11
2022-12-26T19:04:29.726Z,63.87
2022-12-26T19:07:17.370Z,64.12
2022-12-26T19:10:03.018Z,63.64
2022-12-26T19:12:48.830Z,64.23
2022-12-26T19:15:36.013Z,63.89
2022-12-26T19:18:21.753Z,63.95
2022-12-26T19:21:16.505Z,63.68
2022-12-26T19:24:02.683Z,64.39
2022-12-26T19:26:48.715Z,63.76
2022-12-26T19:29:34.391Z,63.79
2022-12-26T19:32:20.366Z,64.41
2022-12-26T19:35:07.753Z,64.15
2022-12-26T19:37:53.597Z,63.83
2022-12-26T19:40:39.591Z,64.13
2022-12-26T19:43:25.343Z,64.08
2022-12-26T19:46:15.482Z,63.70
2022-12-26T19:49:01.449Z,64.23
2022-12-26T19:51:47.672Z,63.69
2022-12-26T19:54:42.922Z,64.02
2022-12-26T19:57:43.706Z,64.06
2022-12-26T20:00:30.883Z,63.75
2022-12-26T20:03:16.822Z,64.27
2022-12-26T20:06:15.436Z,63.92
2022-12-26T20:09:05.762Z,63.82
2022-12-26T20:11:54.206Z,63.95
2022-12-26T20:14:40.082Z,64.01
2022-12-26T20:17:26.128Z,63.99
2022-12-26T20:20:11.941Z,64.01
2022-12-26T20:22:57.842Z,63.71
2022-12-26T20:25:43.534Z,63.87
2022-12-26T20:28:29.801Z,64.11
2022-12-26T20:31:19.416Z,64.00
2022-12-26T20:34:05.377Z,63.65
2022-12-26T20:36:51.562Z,64.33
2022-12-26T20:39:37.572Z,63.70
2022-12-26T20:42:23.464Z,64.14
2022-12-26T20:45:09.632Z,63.54
2022-12-26T20:47:55.429Z,63.68
2022-12-26T20:50:41.366Z,64.13
2022-12-26T20:53:28.364Z,63.76
2022-12-26T20:56:14.817Z,64.02
2022-12-26T20:59:00.881Z,63.80
2022-12-26T21:01:46.778Z,64.01
2022-12-26T21:04:33.300Z,64.13
2022-12-26T21:07:19.425Z,63.84
2022-12-26T21:10:05.481Z,63.74
2022-12-26T21:12:53.433Z,63.74
2022-12-26T21:15:39.631Z,63.92
2022-12-26T21:18:25.702Z,63.81
2022-12-26T21:21:17.083Z,63.60
2022-12-26T21:24:10.871Z,63.84
2022-12-26T21:26:57.189Z,63.89
2022-12-26T21:29:42.995Z,63.86
2022-12-26T21:32:28.658Z,63.90
2022-12-26T21:35:14.960Z,63.84
2022-12-26T21:38:01.153Z,63.56
2022-12-26T21:40:47.372Z,63.94
2022-12-26T21:43:34.240Z,63.79
2022-12-26T21:46:20.660Z,63.83
2022-12-26T21:49:06.425Z,63.85
2022-12-26T21:51:52.052Z,63.58
2022-12-26T21:54:56.378Z,63.75
2022-12-26T21:57:42.182Z,63.55
2022-12-26T22:00:31.377Z,64.18
2022-12-26T22:03:52.539Z,63.96
2022-12-26T22:06:38.696Z,64.20
2022-12-26T22:09:25.044Z,64.12
2022-12-26T22:12:30.185Z,64.34
2022-12-26T22:15:34.948Z,64.15
2022-12-26T22:18:21.405Z,64.21
2022-12-26T22:21:12.987Z,64.35
2022-12-26T22:23:59.765Z,64.20
2022-12-26T22:26:45.910Z,63.90
2022-12-26T22:29:31.715Z,63.99
2022-12-26T22:32:17.454Z,64.29
2022-12-26T22:35:03.656Z,64.05
2022-12-26T22:37:49.451Z,64.43
2022-12-26T22:40:36.124Z,64.04
2022-12-26T22:43:22.311Z,63.99
2022-12-26T22:46:08.221Z,64.29
2022-12-26T22:48:54.038Z,64.45
2022-12-26T22:51:39.702Z,64.06
2022-12-26T22:54:26.079Z,64.00
2022-12-26T22:57:12.133Z,64.10
2022-12-26T23:00:08.235Z,64.13
2022-12-26T23:02:55.222Z,64.52
2022-12-26T23:05:41.592Z,64.33
2022-12-26T23:08:28.256Z,64.44
2022-12-26T23:11:14.497Z,64.74
2022-12-26T23:14:01.357Z,64.53
2022-12-26T23:16:58.385Z,64.67
2022-12-26T23:20:07.965Z,64.58
2022-12-26T23:22:54.095Z,64.34
2022-12-26T23:25:40.200Z,64.98
2022-12-26T23:28:44.619Z,64.57
2022-12-26T23:31:30.641Z,64.43
2022-12-26T23:34:16.369Z,64.75
2022-12-26T23:37:02.784Z,64.25
2022-12-26T23:39:48.646Z,64.63
2022-12-26T23:42:34.267Z,64.46
2022-12-26T23:45:20.191Z,64.25
2022-12-26T23:48:06.065Z,64.26
2022-12-26T23:51:03.914Z,63.98
2022-12-26T23:53:49.602Z,64.45
2022-12-26T23:56:36.978Z,64.35
2022-12-26T23:59:23.564Z,64.52
